createdAt,value
2018-05-11T00:02:14.132Z,11.00
2018-05-11T00:04:43.708Z,11.00
2018-05-11T00:07:16.403Z,11.00
2018-05-11T00:09:47.118Z,11.00
2018-05-11T00:12:15.151Z,11.00
2018-05-11T00:14:43.190Z,11.00
2018-05-11T00:17:12.143Z,11.00
2018-05-11T00:19:43.075Z,11.00
2018-05-11T00:22:11.114Z,11.00
2018-05-11T00:24:40.551Z,11.00
2018-05-11T00:27:13.095Z,11.00
2018-05-11T00:29:42.143Z,11.00
2018-05-11T00:32:10.167Z,11.00
2018-05-11T00:34:41.231Z,11.00
2018-05-11T00:37:11.187Z,11.00
2018-05-11T00:39:39.227Z,11.00
2018-05-11T00:42:08.179Z,11.00
2018-05-11T00:44:39.866Z,11.00
2018-05-11T00:47:07.910Z,11.00
2018-05-11T00:49:36.819Z,11.00
2018-05-11T00:52:09.711Z,11.00
2018-05-11T00:54:38.702Z,11.00
2018-05-11T00:57:06.740Z,11.00
2018-05-11T00:59:35.771Z,11.00
2018-05-11T01:02:03.807Z,10.90
2018-05-11T01:04:36.003Z,11.00
2018-05-11T01:07:04.931Z,11.00
2018-05-11T01:09:33.859Z,11.00
2018-05-11T01:12:07.195Z,11.00
2018-05-11T01:14:37.187Z,11.00
2018-05-11T01:17:08.354Z,10.90
2018-05-11T01:19:37.191Z,10.90
2018-05-11T01:22:06.115Z,10.90
2018-05-11T01:24:35.129Z,10.90
2018-05-11T01:27:04.543Z,10.90
2018-05-11T01:29:32.591Z,10.90
2018-05-11T01:32:05.819Z,10.90
2018-05-11T01:34:45.140Z,10.90
2018-05-11T01:37:15.128Z,11.00
2018-05-11T01:39:48.926Z,10.90
2018-05-11T01:42:17.231Z,10.90
2018-05-11T01:44:45.265Z,10.90
2018-05-11T01:47:17.061Z,10.90
2018-05-11T01:49:46.043Z,10.90
2018-05-11T01:52:19.444Z,10.90
2018-05-11T01:55:01.408Z,10.90
2018-05-11T01:57:30.422Z,10.90
2018-05-11T01:59:58.443Z,10.90
2018-05-11T02:02:32.195Z,10.90
2018-05-11T02:05:01.159Z,10.90
2018-05-11T02:07:39.187Z,10.90
2018-05-11T02:10:09.243Z,10.90
2018-05-11T02:12:37.268Z,10.80
2018-05-11T02:15:06.279Z,10.90
2018-05-11T02:17:35.235Z,10.90
2018-05-11T02:20:08.951Z,10.80
2018-05-11T02:22:38.911Z,10.80
2018-05-11T02:25:06.953Z,10.80
2018-05-11T02:27:36.787Z,10.80
2018-05-11T02:30:05.887Z,10.80
2018-05-11T02:32:35.855Z,10.80
2018-05-11T02:35:04.808Z,10.80
2018-05-11T02:37:32.819Z,10.80
2018-05-11T02:40:00.863Z,10.80
2018-05-11T02:42:28.899Z,10.80
2018-05-11T02:44:57.878Z,10.80
2018-05-11T02:47:28.831Z,10.80
2018-05-11T02:49:57.798Z,10.80
2018-05-11T02:52:30.190Z,10.80
2018-05-11T02:55:00.127Z,10.80
2018-05-11T02:57:29.166Z,10.80
2018-05-11T03:00:01.283Z,10.80
2018-05-11T03:02:29.298Z,10.70
2018-05-11T03:04:58.323Z,10.70
2018-05-11T03:07:27.289Z,10.70
2018-05-11T03:09:57.614Z,10.60
2018-05-11T03:12:25.663Z,10.60
2018-05-11T03:14:53.682Z,10.60
2018-05-11T03:17:21.741Z,10.60
2018-05-11T03:19:49.804Z,10.60
2018-05-11T03:22:19.678Z,10.60
2018-05-11T03:24:47.714Z,10.60
2018-05-11T03:27:15.858Z,10.60
2018-05-11T03:29:44.666Z,10.60
2018-05-11T03:32:14.576Z,10.60
2018-05-11T03:34:45.790Z,10.60
2018-05-11T03:37:16.088Z,10.60
2018-05-11T03:39:45.067Z,10.60
2018-05-11T03:42:15.930Z,10.70
2018-05-11T03:44:44.950Z,10.70
2018-05-11T03:47:13.010Z,10.70
2018-05-11T03:49:43.035Z,10.70
2018-05-11T03:52:12.006Z,10.70
2018-05-11T03:54:41.003Z,10.70
2018-05-11T03:57:16.343Z,10.80
2018-05-11T03:59:49.454Z,10.70
2018-05-11T04:02:33.778Z,10.80
2018-05-11T04:05:14.694Z,10.80
2018-05-11T04:07:55.546Z,10.80
2018-05-11T04:10:25.542Z,10.80
2018-05-11T04:12:55.550Z,10.90
2018-05-11T04:15:24.475Z,10.90
2018-05-11T04:17:53.474Z,10.90
2018-05-11T04:20:23.486Z,10.90
2018-05-11T04:22:52.471Z,10.90
2018-05-11T04:25:27.405Z,10.90
2018-05-11T04:27:56.366Z,11.00
2018-05-11T04:30:24.618Z,11.00
2018-05-11T04:32:52.998Z,11.10
2018-05-11T04:35:22.006Z,11.20
2018-05-11T04:37:56.314Z,11.20
2018-05-11T04:40:27.474Z,11.20
2018-05-11T04:42:55.538Z,11.20
2018-05-11T04:45:23.629Z,11.20
2018-05-11T04:47:52.490Z,11.10
2018-05-11T04:50:23.474Z,11.20
2018-05-11T04:52:52.734Z,11.20
2018-05-11T04:55:24.386Z,11.30
2018-05-11T04:57:52.422Z,11.30
2018-05-11T05:00:22.393Z,11.40
2018-05-11T05:02:51.402Z,11.50
2018-05-11T05:05:19.666Z,11.50
2018-05-11T05:07:48.526Z,11.50
2018-05-11T05:10:18.497Z,11.40
2018-05-11T05:12:46.518Z,11.40
2018-05-11T05:15:14.564Z,11.40
2018-05-11T05:17:43.583Z,11.50
2018-05-11T05:20:11.642Z,11.50
2018-05-11T05:22:39.690Z,11.60
2018-05-11T05:25:07.714Z,11.60
2018-05-11T05:27:36.693Z,11.70
2018-05-11T05:33:44.209Z,11.80
2018-05-11T05:36:16.078Z,11.70
2018-05-11T05:38:48.641Z,11.80
2018-05-11T05:41:20.389Z,11.80
2018-05-11T05:43:52.234Z,11.80
2018-05-11T05:46:25.341Z,11.90
2018-05-11T05:48:53.973Z,11.90
2018-05-11T05:51:25.402Z,11.90
2018-05-11T05:53:54.205Z,12.10
2018-05-11T05:56:22.230Z,12.10
2018-05-11T05:58:51.230Z,12.20
2018-05-11T06:01:19.262Z,12.40
2018-05-11T06:03:47.394Z,12.60
2018-05-11T06:06:17.379Z,12.60
2018-05-11T06:08:47.402Z,12.60
2018-05-11T06:11:15.440Z,12.70
2018-05-11T06:13:45.538Z,12.70
2018-05-11T06:16:15.506Z,12.80
2018-05-11T06:18:43.546Z,12.90
2018-05-11T06:21:11.570Z,12.90
2018-05-11T06:23:40.365Z,12.90
2018-05-11T06:26:08.477Z,12.90
2018-05-11T06:28:37.505Z,12.70
2018-05-11T06:31:05.525Z,12.80
2018-05-11T06:33:33.557Z,12.80
2018-05-11T06:36:02.977Z,12.90
2018-05-11T06:38:31.749Z,13.20
2018-05-11T06:40:59.766Z,13.20
2018-05-11T06:43:27.789Z,13.40
2018-05-11T06:45:56.646Z,13.40
2018-05-11T06:48:25.537Z,13.40
2018-05-11T06:50:56.943Z,13.50
2018-05-11T06:53:27.710Z,13.30
2018-05-11T06:55:56.829Z,13.30
2018-05-11T06:58:30.515Z,13.20
2018-05-11T07:00:58.557Z,13.10
2018-05-11T07:03:27.581Z,13.20
2018-05-11T07:06:00.988Z,13.00
2018-05-11T07:08:34.172Z,13.00
2018-05-11T07:11:08.084Z,12.90
2018-05-11T07:13:41.772Z,12.90
2018-05-11T07:16:10.768Z,12.90
2018-05-11T07:18:39.768Z,12.90
2018-05-11T07:21:12.960Z,12.90
2018-05-11T07:23:40.996Z,12.80
2018-05-11T07:26:09.019Z,12.70
2018-05-11T07:28:41.896Z,12.80
2018-05-11T07:31:13.020Z,12.90
2018-05-11T07:33:41.052Z,13.00
2018-05-11T07:36:10.092Z,13.10
2018-05-11T07:38:39.111Z,13.10
2018-05-11T07:41:08.088Z,13.10
2018-05-11T07:43:36.764Z,13.10
2018-05-11T07:46:04.884Z,13.20
2018-05-11T07:48:42.996Z,13.00
2018-05-11T07:51:12.044Z,13.20
2018-05-11T07:53:43.328Z,13.40
2018-05-11T07:56:13.371Z,13.50
2018-05-11T07:58:44.112Z,13.70
2018-05-11T08:01:16.258Z,13.60
2018-05-11T08:03:46.240Z,13.50
2018-05-11T08:06:14.300Z,13.30
2018-05-11T08:08:47.032Z,13.30
2018-05-11T08:11:22.444Z,13.00
2018-05-11T08:13:55.208Z,12.90
2018-05-11T08:16:27.948Z,13.00
2018-05-11T08:18:59.112Z,13.20
2018-05-11T08:21:35.737Z,13.20
2018-05-11T08:24:11.332Z,13.20
2018-05-11T08:26:46.204Z,13.20
2018-05-11T08:29:21.632Z,13.20
2018-05-11T08:31:50.568Z,13.30
2018-05-11T08:34:23.573Z,13.50
2018-05-11T08:36:53.492Z,13.60
2018-05-11T08:39:25.169Z,13.70
2018-05-11T08:42:11.606Z,13.70
2018-05-11T08:44:42.981Z,13.70
2018-05-11T08:47:12.898Z,13.70
2018-05-11T08:49:40.921Z,13.90
2018-05-11T08:52:12.941Z,14.00
2018-05-11T08:54:54.041Z,14.00
2018-05-11T08:57:22.827Z,13.80
2018-05-11T08:59:51.601Z,13.90
2018-05-11T09:02:19.629Z,13.90
2018-05-11T09:04:49.566Z,14.00
2018-05-11T09:07:23.645Z,14.40
2018-05-11T09:10:05.381Z,14.80
2018-05-11T09:12:33.405Z,14.80
2018-05-11T09:15:01.430Z,15.10
2018-05-11T09:17:31.342Z,15.70
2018-05-11T09:19:59.369Z,16.30
2018-05-11T09:22:31.145Z,16.90
2018-05-11T09:24:59.188Z,17.40
2018-05-11T09:27:27.201Z,17.20
2018-05-11T09:29:55.222Z,16.90
2018-05-11T09:32:23.245Z,17.40
2018-05-11T09:34:52.162Z,18.10
2018-05-11T09:37:22.097Z,18.20
2018-05-11T09:39:50.208Z,18.40
2018-05-11T09:42:19.013Z,18.40
2018-05-11T09:45:02.641Z,18.50
2018-05-11T09:47:30.672Z,18.50
2018-05-11T09:50:00.085Z,19.00
2018-05-11T09:52:28.106Z,18.70
2018-05-11T09:54:56.838Z,18.70
2018-05-11T09:57:30.621Z,18.30
2018-05-11T10:00:03.482Z,18.10
2018-05-11T10:02:35.149Z,19.10
2018-05-11T10:05:05.117Z,19.00
2018-05-11T10:07:33.145Z,19.20
2018-05-11T10:10:01.169Z,19.20
2018-05-11T10:12:29.190Z,19.20
2018-05-11T10:15:00.734Z,18.50
2018-05-11T10:17:30.688Z,18.80
2018-05-11T10:19:59.668Z,18.90
2018-05-11T10:22:35.304Z,19.20
2018-05-11T10:25:07.492Z,19.80
2018-05-11T10:27:39.121Z,20.20
2018-05-11T10:30:09.032Z,21.10
2018-05-11T10:32:38.968Z,22.00
2018-05-11T10:35:14.560Z,22.80
2018-05-11T10:37:43.516Z,23.20
2018-05-11T10:40:12.425Z,22.30
2018-05-11T10:42:44.001Z,20.90
2018-05-11T10:45:12.020Z,20.70
2018-05-11T10:47:40.937Z,22.20
2018-05-11T10:50:08.961Z,23.60
2018-05-11T10:52:36.992Z,24.90
2018-05-11T10:55:17.580Z,24.90
2018-05-11T10:57:45.592Z,23.90
2018-05-11T11:00:18.809Z,23.20
2018-05-11T11:02:46.824Z,22.90
2018-05-11T11:05:14.840Z,23.60
2018-05-11T11:07:45.873Z,23.70
2018-05-11T11:10:17.516Z,22.80
2018-05-11T11:12:50.326Z,22.20
2018-05-11T11:15:19.280Z,22.30
2018-05-11T11:17:51.676Z,21.50
2018-05-11T11:20:25.972Z,20.80
2018-05-11T11:22:59.292Z,21.60
2018-05-11T11:25:27.304Z,21.90
2018-05-11T11:27:55.316Z,21.10
2018-05-11T11:30:26.352Z,20.80
2018-05-11T11:32:55.344Z,20.90
2018-05-11T11:35:24.768Z,20.90
2018-05-11T11:37:54.668Z,21.00
2018-05-11T11:40:23.660Z,21.60
2018-05-11T11:42:52.644Z,22.10
2018-05-11T11:45:26.244Z,22.10
2018-05-11T11:47:54.304Z,22.30
2018-05-11T11:50:25.936Z,22.80
2018-05-11T11:52:53.960Z,23.00
2018-05-11T11:55:21.992Z,22.10
2018-05-11T11:57:50.016Z,21.40
2018-05-11T12:00:18.092Z,21.00
2018-05-11T12:02:46.140Z,20.20
2018-05-11T12:05:14.165Z,19.60
2018-05-11T12:07:42.196Z,19.40
2018-05-11T12:10:10.220Z,20.00
2018-05-11T12:12:41.492Z,20.30
2018-05-11T12:15:11.252Z,20.50
2018-05-11T12:17:39.376Z,20.20
2018-05-11T12:20:08.364Z,20.20
2018-05-11T12:22:37.344Z,20.30
2018-05-11T12:25:05.396Z,20.40
2018-05-11T12:27:35.120Z,20.60
2018-05-11T12:30:04.155Z,21.00
2018-05-11T12:32:33.940Z,22.80
2018-05-11T12:35:05.593Z,22.80
2018-05-11T12:37:34.568Z,22.90
2018-05-11T12:40:04.808Z,22.70
2018-05-11T12:42:33.888Z,23.50
2018-05-11T12:45:05.147Z,24.70
2018-05-11T12:47:40.479Z,24.40
2018-05-11T12:50:16.352Z,24.10
2018-05-11T12:52:50.285Z,23.60
2018-05-11T12:55:24.643Z,22.80
2018-05-11T12:57:52.811Z,21.60
2018-05-11T13:00:21.667Z,22.00
2018-05-11T13:20:44.010Z,26.40
2018-05-11T13:23:13.204Z,26.30
2018-05-11T13:25:45.651Z,25.20
2018-05-11T13:28:18.183Z,25.20
2018-05-11T13:30:46.229Z,24.50
2018-05-11T13:33:15.008Z,23.80
2018-05-11T13:35:56.739Z,23.30
2018-05-11T13:38:24.784Z,23.30
2018-05-11T13:40:57.440Z,25.30
2018-05-11T13:43:26.360Z,24.80
2018-05-11T13:46:04.952Z,24.30
2018-05-11T13:48:37.907Z,23.60
2018-05-11T13:51:10.609Z,23.40
2018-05-11T13:53:49.014Z,25.40
2018-05-11T13:56:19.958Z,25.40
2018-05-11T13:58:53.609Z,27.10
2018-05-11T14:01:21.626Z,28.40
2018-05-11T14:03:49.669Z,28.90
2018-05-11T14:06:17.687Z,27.60
2018-05-11T14:08:47.360Z,24.10
2018-05-11T14:11:18.499Z,24.10
2018-05-11T14:13:46.527Z,23.60
2018-05-11T14:16:14.592Z,24.00
2018-05-11T14:18:47.832Z,25.70
2018-05-11T14:21:15.859Z,25.70
2018-05-11T14:23:43.871Z,26.80
2018-05-11T14:26:11.899Z,27.80
2018-05-11T14:28:40.795Z,26.90
2018-05-11T14:31:08.819Z,25.80
2018-05-11T14:33:37.756Z,26.00
2018-05-11T14:36:06.683Z,26.10
2018-05-11T14:38:36.492Z,25.50
2018-05-11T14:41:08.659Z,24.20
2018-05-11T14:43:37.568Z,23.50
2018-05-11T14:46:09.223Z,23.90
2018-05-11T14:48:39.031Z,25.70
2018-05-11T14:51:07.944Z,26.10
2018-05-11T14:53:40.799Z,24.00
2018-05-11T14:56:13.675Z,24.00
2018-05-11T14:58:42.605Z,23.40
2018-05-11T15:01:13.294Z,23.20
2018-05-11T15:03:42.301Z,23.20
2018-05-11T15:06:20.455Z,22.60
2018-05-11T15:09:01.209Z,21.70
2018-05-11T15:11:30.001Z,21.10
2018-05-11T15:14:06.112Z,21.10
2018-05-11T15:16:34.116Z,21.80
2018-05-11T15:19:02.900Z,25.70
2018-05-11T15:21:31.695Z,27.00
2018-05-11T15:24:00.475Z,27.40
2018-05-11T15:26:35.039Z,27.30
2018-05-11T15:29:03.047Z,27.20
2018-05-11T15:31:35.119Z,27.10
2018-05-11T15:34:04.094Z,26.30
2018-05-11T15:36:32.119Z,26.50
2018-05-11T15:39:01.039Z,26.00
2018-05-11T15:41:29.051Z,26.10
2018-05-11T15:43:58.953Z,26.10
2018-05-11T15:46:31.582Z,26.00
2018-05-11T15:48:59.591Z,25.70
2018-05-11T15:51:28.503Z,26.00
2018-05-11T15:53:57.287Z,27.10
2018-05-11T15:56:25.302Z,27.10
2018-05-11T15:58:58.519Z,26.90
2018-05-11T16:01:40.698Z,27.20
2018-05-11T16:04:08.722Z,27.20
2018-05-11T16:06:38.716Z,27.30
2018-05-11T16:09:06.747Z,27.00
2018-05-11T16:11:44.750Z,25.30
2018-05-11T16:14:20.519Z,24.50
2018-05-11T16:16:50.422Z,23.90
2018-05-11T16:19:18.483Z,24.30
2018-05-11T16:21:52.254Z,24.60
2018-05-11T16:24:24.090Z,24.20
2018-05-11T16:26:52.106Z,24.10
2018-05-11T16:29:26.478Z,23.30
2018-05-11T16:31:59.519Z,22.80
2018-05-11T16:34:29.474Z,22.20
2018-05-11T16:37:03.871Z,21.70
2018-05-11T16:39:49.421Z,21.50
2018-05-11T16:42:18.350Z,21.30
2018-05-11T16:44:47.258Z,21.00
2018-05-11T16:47:17.266Z,21.00
2018-05-11T16:49:53.174Z,20.90
2018-05-11T16:52:21.193Z,20.80
2018-05-11T16:54:49.214Z,20.70
2018-05-11T16:57:19.178Z,20.60
2018-05-11T16:59:48.091Z,20.70
2018-05-11T17:02:18.000Z,20.80
2018-05-11T17:04:46.938Z,20.70
2018-05-11T17:07:16.683Z,20.60
2018-05-11T17:09:51.194Z,20.50
2018-05-11T17:12:20.162Z,20.50
2018-05-11T17:14:48.170Z,20.40
2018-05-11T17:17:19.526Z,20.20
2018-05-11T17:20:00.933Z,20.00
2018-05-11T17:22:40.176Z,19.80
2018-05-11T17:25:08.102Z,19.80
2018-05-11T17:27:41.080Z,19.70
2018-05-11T17:30:09.086Z,19.70
2018-05-11T17:32:45.193Z,19.50
2018-05-11T17:35:13.206Z,19.50
2018-05-11T17:37:43.886Z,19.30
2018-05-11T17:40:11.914Z,19.30
2018-05-11T17:42:42.618Z,19.40
2018-05-11T17:45:14.274Z,19.40
2018-05-11T17:47:48.011Z,19.60
2018-05-11T17:50:20.758Z,19.50
2018-05-11T17:52:53.740Z,19.50
2018-05-11T17:55:21.758Z,19.30
2018-05-11T17:57:55.182Z,19.20
2018-05-11T18:00:29.766Z,19.00
2018-05-11T18:02:59.430Z,18.70
2018-05-11T18:05:32.838Z,18.70
2018-05-11T18:08:02.762Z,18.50
2018-05-11T18:10:31.686Z,18.40
2018-05-11T18:13:00.618Z,18.20
2018-05-11T18:15:28.634Z,18.00
2018-05-11T18:17:59.314Z,17.80
2018-05-11T18:20:35.455Z,17.70
2018-05-11T18:23:04.366Z,17.60
2018-05-11T18:25:35.935Z,17.40
2018-05-11T18:28:09.576Z,17.30
2018-05-11T18:30:38.354Z,16.90
2018-05-11T18:33:11.226Z,16.80
2018-05-11T18:35:46.734Z,16.70
2018-05-11T18:38:15.734Z,16.60
2018-05-11T18:40:47.703Z,16.40
2018-05-11T18:43:16.722Z,16.30
2018-05-11T18:45:50.338Z,15.90
2018-05-11T18:48:19.122Z,15.70
2018-05-11T18:50:49.030Z,15.70
2018-05-11T18:53:18.006Z,15.30
2018-05-11T18:55:51.717Z,15.30
2018-05-11T18:58:21.625Z,15.10
2018-05-11T19:00:49.642Z,14.90
2018-05-11T19:03:17.669Z,14.70
2018-05-11T19:05:45.684Z,14.40
2018-05-11T19:08:15.644Z,14.30
2018-05-11T19:10:43.650Z,14.10
2018-05-11T19:13:12.570Z,14.00
2018-05-11T19:15:45.790Z,13.90
2018-05-11T19:18:13.826Z,13.90
2018-05-11T19:20:41.837Z,13.90
2018-05-11T19:23:10.865Z,13.90
2018-05-11T19:25:42.070Z,13.90
2018-05-11T19:28:12.009Z,13.80
2018-05-11T19:30:40.850Z,13.60
2018-05-11T19:33:08.873Z,13.50
2018-05-11T19:35:41.978Z,13.30
2018-05-11T19:38:10.002Z,13.30
2018-05-11T19:40:38.918Z,13.20
2018-05-11T19:43:07.705Z,12.80
2018-05-11T19:45:43.005Z,12.70
2018-05-11T19:48:15.942Z,12.70
2018-05-11T19:50:45.949Z,12.50
2018-05-11T19:53:14.729Z,12.50
2018-05-11T19:55:43.546Z,12.50
2018-05-11T19:58:11.578Z,12.50
2018-05-11T20:00:40.498Z,12.50
2018-05-11T20:03:09.506Z,12.30
2018-05-11T20:05:39.514Z,12.30
2018-05-11T20:08:07.677Z,12.20
2018-05-11T20:10:41.541Z,12.00
2018-05-11T20:13:09.615Z,12.00
2018-05-11T20:15:42.298Z,12.00
2018-05-11T20:18:13.441Z,11.90
2018-05-11T20:20:47.834Z,11.90
2018-05-11T20:23:21.732Z,12.00
2018-05-11T20:25:49.782Z,12.10
2018-05-11T20:28:21.795Z,12.10
2018-05-11T20:30:51.878Z,12.10
2018-05-11T20:33:22.998Z,12.10
2018-05-11T20:35:53.969Z,12.20
2018-05-11T20:38:24.729Z,12.30
2018-05-11T20:40:58.821Z,12.30
2018-05-11T20:43:27.118Z,12.50
2018-05-11T20:45:58.194Z,12.60
2018-05-11T20:48:30.213Z,12.70
2018-05-11T20:50:59.293Z,12.90
2018-05-11T20:53:27.454Z,13.10
2018-05-11T20:55:56.381Z,13.10
2018-05-11T20:58:25.293Z,13.10
2018-05-11T21:00:53.301Z,13.10
2018-05-11T21:03:21.782Z,13.10
2018-05-11T21:05:54.036Z,13.10
2018-05-11T21:08:24.149Z,13.00
2018-05-11T21:11:00.657Z,13.00
2018-05-11T21:13:35.853Z,12.90
2018-05-11T21:16:05.905Z,12.80
2018-05-11T21:18:39.269Z,12.60
2018-05-11T21:21:13.149Z,12.50
2018-05-11T21:23:49.707Z,12.40
2018-05-11T21:26:17.881Z,12.50
2018-05-11T21:28:49.073Z,12.50
2018-05-11T21:31:19.042Z,12.50
2018-05-11T21:33:54.250Z,12.80
2018-05-11T21:36:22.665Z,12.70
2018-05-11T21:38:53.207Z,13.00
2018-05-11T21:41:22.909Z,13.00
2018-05-11T21:43:53.645Z,13.10
2018-05-11T21:46:22.655Z,13.10
2018-05-11T21:48:55.465Z,13.00
2018-05-11T21:51:26.749Z,12.60
2018-05-11T21:53:57.473Z,11.90
2018-05-11T21:56:26.433Z,11.90
2018-05-11T21:58:54.466Z,11.60
2018-05-11T22:01:23.717Z,11.40
2018-05-11T22:03:53.329Z,11.20
2018-05-11T22:06:22.481Z,11.20
2018-05-11T22:09:03.657Z,11.10
2018-05-11T22:11:33.681Z,11.00
2018-05-11T22:14:05.153Z,11.00
2018-05-11T22:16:41.301Z,10.90
2018-05-11T22:19:16.966Z,10.90
2018-05-11T22:21:50.236Z,10.90
2018-05-11T22:24:19.188Z,10.80
2018-05-11T22:26:47.213Z,10.60
2018-05-11T22:29:23.277Z,10.50
2018-05-11T22:31:58.144Z,10.40
2018-05-11T22:34:26.980Z,10.20
2018-05-11T22:37:00.065Z,10.20
2018-05-11T22:39:28.137Z,10.10
2018-05-11T22:41:58.676Z,10.10
2018-05-11T22:47:23.424Z,10.20
2018-05-11T22:49:52.348Z,10.10
2018-05-11T22:52:23.052Z,10.00
2018-05-11T22:54:53.009Z,10.00
2018-05-11T22:57:21.940Z,9.90
2018-05-11T23:00:14.356Z,9.90
2018-05-11T23:02:48.177Z,10.00
2018-05-11T23:05:21.464Z,10.10
2018-05-11T23:08:09.308Z,10.10
2018-05-11T23:10:37.348Z,10.20
2018-05-11T23:13:11.492Z,10.20
2018-05-11T23:15:51.853Z,10.00
2018-05-11T23:18:20.664Z,9.90
2018-05-11T23:20:50.699Z,9.90
2018-05-11T23:23:21.504Z,9.70
2018-05-11T23:25:56.175Z,9.70
2018-05-11T23:28:25.124Z,9.70
2018-05-11T23:30:53.140Z,9.50
2018-05-11T23:33:22.064Z,9.40
2018-05-11T23:35:51.984Z,9.30
2018-05-11T23:38:20.992Z,9.20
2018-05-11T23:40:59.316Z,9.40
2018-05-11T23:43:28.281Z,9.40
2018-05-11T23:46:00.432Z,9.50
2018-05-11T23:48:28.458Z,9.60
2018-05-11T23:51:01.784Z,9.50
2018-05-11T23:53:29.872Z,9.50
2018-05-11T23:55:59.160Z,9.20
2018-05-11T23:58:32.183Z,9.20
